sensor_id;sensor_type;location;lat;lon;timestamp;pressure;altitude;pressure_sealevel;temperature;humidity
60725;BME280;59881;36.722;-4.462;2022-12-29T00:01:51;101748.16;;;10.52;72.54
60725;BME280;59881;36.722;-4.462;2022-12-29T00:04:17;101742.66;;;10.74;72.82
60725;BME280;59881;36.722;-4.462;2022-12-29T00:06:43;100965.44;;;6.05;72.02
60725;BME280;59881;36.722;-4.462;2022-12-29T00:09:11;101699.41;;;10.43;72.51
60725;BME280;59881;36.722;-4.462;2022-12-29T00:11:37;100958.03;;;5.94;72.26
60725;BME280;59881;36.722;-4.462;2022-12-29T00:14:03;101733.50;;;10.64;72.51
60725;BME280;59881;36.722;-4.462;2022-12-29T00:16:47;101821.38;;;10.45;72.61
60725;BME280;59881;36.722;-4.462;2022-12-29T00:19:13;101928.72;;;10.59;72.89
60725;BME280;59881;36.722;-4.462;2022-12-29T00:21:57;101738.94;;;10.61;72.94
60725;BME280;59881;36.722;-4.462;2022-12-29T00:24:42;101618.59;;;9.90;72.71
60725;BME280;59881;36.722;-4.462;2022-12-29T00:27:29;101745.13;;;10.60;72.43
60725;BME280;59881;36.722;-4.462;2022-12-29T00:30:18;101728.16;;;10.65;72.56
60725;BME280;59881;36.722;-4.462;2022-12-29T00:33:11;101526.75;;;9.49;71.93
60725;BME280;59881;36.722;-4.462;2022-12-29T00:36:00;101616.16;;;10.22;71.57
60725;BME280;59881;36.722;-4.462;2022-12-29T00:38:27;101238.44;;;8.05;70.53
60725;BME280;59881;36.722;-4.462;2022-12-29T00:41:11;101705.94;;;11.04;70.38
60725;BME280;59881;36.722;-4.462;2022-12-29T00:43:56;100852.84;;;5.87;69.34
60725;BME280;59881;36.722;-4.462;2022-12-29T00:46:31;101813.69;;;11.12;69.45
60725;BME280;59881;36.722;-4.462;2022-12-29T00:48:57;101472.28;;;9.68;69.17
60725;BME280;59881;36.722;-4.462;2022-12-29T00:51:41;101765.28;;;10.78;69.41
60725;BME280;59881;36.722;-4.462;2022-12-29T00:54:07;100882.59;;;6.05;68.72
60725;BME280;59881;36.722;-4.462;2022-12-29T00:56:32;101383.28;;;9.07;69.53
60725;BME280;59881;36.722;-4.462;2022-12-29T00:59:07;101704.38;;;11.00;69.53
60725;BME280;59881;36.722;-4.462;2022-12-29T01:01:34;101667.31;;;10.16;69.18
60725;BME280;59881;36.722;-4.462;2022-12-29T01:03:59;101581.59;;;10.28;69.19
60725;BME280;59881;36.722;-4.462;2022-12-29T01:06:25;101293.34;;;8.48;69.00
60725;BME280;59881;36.722;-4.462;2022-12-29T01:08:51;100826.81;;;5.65;68.78
60725;BME280;59881;36.722;-4.462;2022-12-29T01:11:38;101696.19;;;10.89;69.00
60725;BME280;59881;36.722;-4.462;2022-12-29T01:14:04;101694.44;;;10.89;69.27
60725;BME280;59881;36.722;-4.462;2022-12-29T01:16:30;101687.59;;;10.85;69.04
60725;BME280;59881;36.722;-4.462;2022-12-29T01:18:55;101634.31;;;10.45;68.84
60725;BME280;59881;36.722;-4.462;2022-12-29T01:21:21;101689.38;;;10.85;69.00
60725;BME280;59881;36.722;-4.462;2022-12-29T01:23:47;101683.78;;;10.73;68.98
60725;BME280;59881;36.722;-4.462;2022-12-29T01:26:14;101603.81;;;10.22;69.19
60725;BME280;59881;36.722;-4.462;2022-12-29T01:28:41;101686.53;;;10.72;69.30
60725;BME280;59881;36.722;-4.462;2022-12-29T01:31:11;101626.84;;;10.36;68.96
60725;BME280;59881;36.722;-4.462;2022-12-29T01:33:37;101688.53;;;10.67;69.01
60725;BME280;59881;36.722;-4.462;2022-12-29T01:36:12;101696.69;;;10.62;69.15
60725;BME280;59881;36.722;-4.462;2022-12-29T01:38:37;101680.00;;;10.62;68.95
60725;BME280;59881;36.722;-4.462;2022-12-29T01:41:04;101683.97;;;10.70;69.25
60725;BME280;59881;36.722;-4.462;2022-12-29T01:46:28;101680.94;;;10.78;68.42
60725;BME280;59881;36.722;-4.462;2022-12-29T01:51:40;101247.66;;;8.14;67.66
60725;BME280;59881;36.722;-4.462;2022-12-29T01:54:11;101596.88;;;10.21;67.97
60725;BME280;59881;36.722;-4.462;2022-12-29T01:56:39;100812.31;;;5.37;67.98
60725;BME280;59881;36.722;-4.462;2022-12-29T01:59:11;101686.00;;;10.65;68.60
60725;BME280;59881;36.722;-4.462;2022-12-29T02:01:40;101777.41;;;10.46;67.95
60725;BME280;59881;36.722;-4.462;2022-12-29T02:04:07;101705.28;;;10.66;68.31
60725;BME280;59881;36.722;-4.462;2022-12-29T02:06:53;101628.94;;;10.29;67.67
60725;BME280;59881;36.722;-4.462;2022-12-29T02:09:21;101805.97;;;10.17;67.52
60725;BME280;59881;36.722;-4.462;2022-12-29T02:11:47;101690.63;;;10.77;67.50
60725;BME280;59881;36.722;-4.462;2022-12-29T02:14:13;101694.75;;;10.83;67.17
60725;BME280;59881;36.722;-4.462;2022-12-29T02:28:08;101697.97;;;11.06;65.22
60725;BME280;59881;36.722;-4.462;2022-12-29T02:39:21;101691.88;;;10.70;66.13
60725;BME280;59881;36.722;-4.462;2022-12-29T02:42:07;101332.31;;;8.37;65.98
60725;BME280;59881;36.722;-4.462;2022-12-29T02:47:15;101711.56;;;10.63;66.68
60725;BME280;59881;36.722;-4.462;2022-12-29T02:49:51;101640.38;;;10.11;66.99
60725;BME280;59881;36.722;-4.462;2022-12-29T02:52:26;101690.00;;;10.38;67.56
60725;BME280;59881;36.722;-4.462;2022-12-29T02:54:58;101678.25;;;9.53;67.65
60725;BME280;59881;36.722;-4.462;2022-12-29T03:11:15;101655.69;;;9.85;68.30
60725;BME280;59881;36.722;-4.462;2022-12-29T03:14:09;101716.16;;;10.23;69.10
60725;BME280;59881;36.722;-4.462;2022-12-29T03:16:59;101612.81;;;9.64;68.89
60725;BME280;59881;36.722;-4.462;2022-12-29T03:19:30;101214.66;;;7.33;68.29
60725;BME280;59881;36.722;-4.462;2022-12-29T03:22:10;101714.56;;;10.38;68.02
60725;BME280;59881;36.722;-4.462;2022-12-29T03:25:10;101713.94;;;10.33;67.71
60725;BME280;59881;36.722;-4.462;2022-12-29T03:27:47;101253.44;;;7.45;67.53
60725;BME280;59881;36.722;-4.462;2022-12-29T03:30:15;101923.41;;;10.21;67.75
60725;BME280;59881;36.722;-4.462;2022-12-29T03:32:46;101711.91;;;10.21;68.16
60725;BME280;59881;36.722;-4.462;2022-12-29T03:35:15;101719.94;;;10.18;68.10
60725;BME280;59881;36.722;-4.462;2022-12-29T03:40:32;101282.13;;;7.48;68.03
60725;BME280;59881;36.722;-4.462;2022-12-29T03:42:59;101717.75;;;10.08;68.24
60725;BME280;59881;36.722;-4.462;2022-12-29T03:45:26;101711.97;;;10.19;67.81
60725;BME280;59881;36.722;-4.462;2022-12-29T03:47:53;101356.69;;;7.42;66.84
60725;BME280;59881;36.722;-4.462;2022-12-29T03:50:19;101655.50;;;10.07;66.98
60725;BME280;59881;36.722;-4.462;2022-12-29T03:52:44;101710.41;;;10.34;66.46
60725;BME280;59881;36.722;-4.462;2022-12-29T03:55:10;101703.03;;;10.41;66.13
60725;BME280;59881;36.722;-4.462;2022-12-29T03:57:35;101495.59;;;8.46;65.90
60725;BME280;59881;36.722;-4.462;2022-12-29T04:00:03;101709.16;;;10.41;66.03
60725;BME280;59881;36.722;-4.462;2022-12-29T04:02:29;101704.19;;;10.35;65.74
60725;BME280;59881;36.722;-4.462;2022-12-29T04:04:54;101715.72;;;10.32;66.08
60725;BME280;59881;36.722;-4.462;2022-12-29T04:07:20;101793.59;;;10.19;66.44
60725;BME280;59881;36.722;-4.462;2022-12-29T04:09:45;101719.22;;;10.33;66.07
60725;BME280;59881;36.722;-4.462;2022-12-29T04:12:11;101673.56;;;9.96;66.16
60725;BME280;59881;36.722;-4.462;2022-12-29T04:14:36;101716.94;;;10.25;66.08
60725;BME280;59881;36.722;-4.462;2022-12-29T04:17:02;101684.88;;;9.98;66.29
60725;BME280;59881;36.722;-4.462;2022-12-29T04:19:27;101694.44;;;10.01;66.35
60725;BME280;59881;36.722;-4.462;2022-12-29T04:21:53;101220.97;;;7.08;66.12
60725;BME280;59881;36.722;-4.462;2022-12-29T04:24:18;101704.53;;;9.91;66.42
60725;BME280;59881;36.722;-4.462;2022-12-29T04:26:44;101187.34;;;6.78;66.18
60725;BME280;59881;36.722;-4.462;2022-12-29T04:29:09;101735.22;;;10.09;66.36
60725;BME280;59881;36.722;-4.462;2022-12-29T04:31:35;101636.38;;;9.48;66.60
60725;BME280;59881;36.722;-4.462;2022-12-29T04:34:00;101730.13;;;10.06;66.56
60725;BME280;59881;36.722;-4.462;2022-12-29T04:36:26;101729.41;;;10.03;66.50
60725;BME280;59881;36.722;-4.462;2022-12-29T04:38:52;101729.50;;;10.01;66.57
60725;BME280;59881;36.722;-4.462;2022-12-29T04:41:17;101730.34;;;10.02;66.83
60725;BME280;59881;36.722;-4.462;2022-12-29T04:43:43;101845.47;;;9.98;66.94
60725;BME280;59881;36.722;-4.462;2022-12-29T04:46:08;101621.72;;;9.24;66.52
60725;BME280;59881;36.722;-4.462;2022-12-29T04:48:34;101735.50;;;9.86;67.20
60725;BME280;59881;36.722;-4.462;2022-12-29T04:50:59;101640.72;;;8.91;67.15
60725;BME280;59881;36.722;-4.462;2022-12-29T04:53:25;101651.28;;;9.29;67.87
60725;BME280;59881;36.722;-4.462;2022-12-29T04:55:51;101747.22;;;9.79;67.88
60725;BME280;59881;36.722;-4.462;2022-12-29T04:58:18;101296.72;;;7.14;67.97
60725;BME280;59881;36.722;-4.462;2022-12-29T05:00:44;101292.47;;;6.69;68.21
60725;BME280;59881;36.722;-4.462;2022-12-29T05:03:10;101747.50;;;9.72;68.43
60725;BME280;59881;36.722;-4.462;2022-12-29T05:05:35;101742.38;;;9.69;68.47
60725;BME280;59881;36.722;-4.462;2022-12-29T05:08:01;101498.44;;;8.21;68.25
60725;BME280;59881;36.722;-4.462;2022-12-29T05:10:26;101745.09;;;9.68;68.46
60725;BME280;59881;36.722;-4.462;2022-12-29T05:12:52;101712.59;;;9.50;68.33
60725;BME280;59881;36.722;-4.462;2022-12-29T05:15:18;101590.81;;;8.29;68.43
60725;BME280;59881;36.722;-4.462;2022-12-29T05:17:43;101745.38;;;9.62;68.79
60725;BME280;59881;36.722;-4.462;2022-12-29T05:20:09;101740.16;;;9.60;68.54
60725;BME280;59881;36.722;-4.462;2022-12-29T05:22:35;101740.16;;;9.60;68.57
60725;BME280;59881;36.722;-4.462;2022-12-29T05:25:01;101713.28;;;9.35;68.50
60725;BME280;59881;36.722;-4.462;2022-12-29T05:27:26;101743.06;;;9.54;68.54
60725;BME280;59881;36.722;-4.462;2022-12-29T05:29:52;101254.44;;;6.60;68.38
60725;BME280;59881;36.722;-4.462;2022-12-29T05:32:17;101728.50;;;9.47;69.02
60725;BME280;59881;36.722;-4.462;2022-12-29T05:34:43;101646.34;;;9.02;68.73
60725;BME280;59881;36.722;-4.462;2022-12-29T05:37:08;101649.56;;;9.09;68.51
60725;BME280;59881;36.722;-4.462;2022-12-29T05:39:35;101743.94;;;9.73;68.48
60725;BME280;59881;36.722;-4.462;2022-12-29T05:42:01;101494.44;;;7.50;68.33
60725;BME280;59881;36.722;-4.462;2022-12-29T05:44:26;101758.66;;;9.78;68.62
60725;BME280;59881;36.722;-4.462;2022-12-29T05:46:52;101713.78;;;9.62;68.57
60725;BME280;59881;36.722;-4.462;2022-12-29T05:49:17;101292.19;;;6.55;68.36
60725;BME280;59881;36.722;-4.462;2022-12-29T05:51:43;101724.25;;;9.63;68.69
60725;BME280;59881;36.722;-4.462;2022-12-29T05:54:08;101758.22;;;9.87;68.62
60725;BME280;59881;36.722;-4.462;2022-12-29T05:56:34;101336.03;;;7.35;68.47
60725;BME280;59881;36.722;-4.462;2022-12-29T05:58:59;101619.00;;;9.06;68.44
60725;BME280;59881;36.722;-4.462;2022-12-29T06:01:25;100909.78;;;4.73;68.21
60725;BME280;59881;36.722;-4.462;2022-12-29T06:03:50;101378.88;;;7.13;67.97
60725;BME280;59881;36.722;-4.462;2022-12-29T06:06:16;101622.72;;;9.21;68.37
60725;BME280;59881;36.722;-4.462;2022-12-29T06:08:41;101706.91;;;9.59;68.32
60725;BME280;59881;36.722;-4.462;2022-12-29T06:11:07;101711.34;;;9.76;68.07
60725;BME280;59881;36.722;-4.462;2022-12-29T06:13:32;101761.09;;;10.01;67.97
60725;BME280;59881;36.722;-4.462;2022-12-29T06:15:58;101676.53;;;9.52;67.83
60725;BME280;59881;36.722;-4.462;2022-12-29T06:18:23;101297.56;;;7.15;67.50
60725;BME280;59881;36.722;-4.462;2022-12-29T06:20:49;101741.19;;;9.77;67.43
60725;BME280;59881;36.722;-4.462;2022-12-29T06:23:15;101737.25;;;9.66;67.63
60725;BME280;59881;36.722;-4.462;2022-12-29T06:25:41;101229.94;;;6.61;66.89
60725;BME280;59881;36.722;-4.462;2022-12-29T06:28:07;101766.34;;;9.82;66.68
60725;BME280;59881;36.722;-4.462;2022-12-29T06:30:33;101757.81;;;9.77;66.79
60725;BME280;59881;36.722;-4.462;2022-12-29T06:32:59;101279.75;;;6.82;66.37
60725;BME280;59881;36.722;-4.462;2022-12-29T06:35:25;101768.03;;;9.64;66.61
60725;BME280;59881;36.722;-4.462;2022-12-29T06:37:50;101771.66;;;9.62;66.98
60725;BME280;59881;36.722;-4.462;2022-12-29T06:40:16;101247.50;;;6.37;66.43
60725;BME280;59881;36.722;-4.462;2022-12-29T06:42:42;101782.81;;;9.48;67.04
60725;BME280;59881;36.722;-4.462;2022-12-29T06:45:07;101910.94;;;9.46;67.23
60725;BME280;59881;36.722;-4.462;2022-12-29T06:47:34;101776.78;;;9.46;67.39
60725;BME280;59881;36.722;-4.462;2022-12-29T06:50:00;101889.09;;;9.44;67.43
60725;BME280;59881;36.722;-4.462;2022-12-29T06:52:25;101789.13;;;9.44;67.33
60725;BME280;59881;36.722;-4.462;2022-12-29T06:54:51;101779.59;;;9.41;67.13
60725;BME280;59881;36.722;-4.462;2022-12-29T06:57:17;101766.72;;;8.74;66.97
60725;BME280;59881;36.722;-4.462;2022-12-29T06:59:42;101728.88;;;9.19;66.18
60725;BME280;59881;36.722;-4.462;2022-12-29T07:02:10;101345.47;;;6.76;64.92
60725;BME280;59881;36.722;-4.462;2022-12-29T07:04:36;101711.97;;;9.24;64.52
60725;BME280;59881;36.722;-4.462;2022-12-29T07:07:01;101775.03;;;9.65;64.50
60725;BME280;59881;36.722;-4.462;2022-12-29T07:09:27;101800.56;;;9.82;64.15
60725;BME280;59881;36.722;-4.462;2022-12-29T07:11:52;101339.28;;;6.99;64.21
60725;BME280;59881;36.722;-4.462;2022-12-29T07:14:18;101502.13;;;7.10;64.23
60725;BME280;59881;36.722;-4.462;2022-12-29T07:16:43;101810.88;;;9.68;64.48
60725;BME280;59881;36.722;-4.462;2022-12-29T07:19:09;101731.63;;;9.16;64.79
60725;BME280;59881;36.722;-4.462;2022-12-29T07:21:34;101813.63;;;9.65;64.50
60725;BME280;59881;36.722;-4.462;2022-12-29T07:24:00;101333.16;;;6.78;64.53
60725;BME280;59881;36.722;-4.462;2022-12-29T07:26:25;101812.78;;;9.64;64.56
60725;BME280;59881;36.722;-4.462;2022-12-29T07:28:51;101725.38;;;9.18;64.40
60725;BME280;59881;36.722;-4.462;2022-12-29T07:31:21;101390.56;;;7.27;64.21
60725;BME280;59881;36.722;-4.462;2022-12-29T07:33:47;101899.00;;;9.78;63.94
60725;BME280;59881;36.722;-4.462;2022-12-29T07:36:14;101808.38;;;10.22;63.88
60725;BME280;59881;36.722;-4.462;2022-12-29T07:38:41;101853.28;;;10.93;62.75
60725;BME280;59881;36.722;-4.462;2022-12-29T07:41:07;101299.75;;;9.47;60.65
60725;BME280;59881;36.722;-4.462;2022-12-29T07:43:33;101801.38;;;13.78;57.88
60725;BME280;59881;36.722;-4.462;2022-12-29T07:45:58;101749.22;;;14.61;54.60
60725;BME280;59881;36.722;-4.462;2022-12-29T07:48:24;101726.91;;;15.53;51.09
60725;BME280;59881;36.722;-4.462;2022-12-29T07:50:49;101568.97;;;14.73;48.27
60725;BME280;59881;36.722;-4.462;2022-12-29T07:53:15;101770.84;;;16.33;47.02
60725;BME280;59881;36.722;-4.462;2022-12-29T07:55:41;101811.06;;;16.52;46.66
60725;BME280;59881;36.722;-4.462;2022-12-29T07:58:06;101797.41;;;16.57;45.81
60725;BME280;59881;36.722;-4.462;2022-12-29T08:00:32;101798.31;;;15.71;46.26
60725;BME280;59881;36.722;-4.462;2022-12-29T08:02:57;101762.91;;;14.81;47.63
60725;BME280;59881;36.722;-4.462;2022-12-29T08:05:23;101860.19;;;14.95;48.40
60725;BME280;59881;36.722;-4.462;2022-12-29T08:07:48;101730.69;;;16.01;47.20
60725;BME280;59881;36.722;-4.462;2022-12-29T08:10:15;101790.28;;;17.62;44.29
60725;BME280;59881;36.722;-4.462;2022-12-29T08:12:41;101710.91;;;17.99;42.18
60725;BME280;59881;36.722;-4.462;2022-12-29T08:15:09;101791.25;;;19.45;40.35
60725;BME280;59881;36.722;-4.462;2022-12-29T08:17:35;101264.25;;;16.82;38.41
60725;BME280;59881;36.722;-4.462;2022-12-29T08:20:01;101798.06;;;20.88;37.34
60725;BME280;59881;36.722;-4.462;2022-12-29T08:22:27;101802.28;;;21.67;35.24
60725;BME280;59881;36.722;-4.462;2022-12-29T08:24:52;101817.84;;;22.55;34.38
60725;BME280;59881;36.722;-4.462;2022-12-29T08:27:18;101807.91;;;23.35;32.37
60725;BME280;59881;36.722;-4.462;2022-12-29T08:29:44;101804.31;;;24.38;31.26
60725;BME280;59881;36.722;-4.462;2022-12-29T08:32:10;101806.38;;;25.26;29.56
60725;BME280;59881;36.722;-4.462;2022-12-29T08:34:35;101427.97;;;23.60;28.22
60725;BME280;59881;36.722;-4.462;2022-12-29T08:37:01;101779.94;;;26.32;27.23
60725;BME280;59881;36.722;-4.462;2022-12-29T08:39:26;101497.69;;;25.06;26.32
60725;BME280;59881;36.722;-4.462;2022-12-29T08:41:52;101725.19;;;27.43;25.25
60725;BME280;59881;36.722;-4.462;2022-12-29T08:44:18;101779.66;;;28.43;24.19
60725;BME280;59881;36.722;-4.462;2022-12-29T08:46:43;101824.44;;;29.32;23.78
60725;BME280;59881;36.722;-4.462;2022-12-29T08:49:09;101757.53;;;29.59;22.84
60725;BME280;59881;36.722;-4.462;2022-12-29T08:51:34;101821.19;;;30.59;22.38
60725;BME280;59881;36.722;-4.462;2022-12-29T08:54:00;101826.03;;;30.97;21.50
60725;BME280;59881;36.722;-4.462;2022-12-29T08:56:26;101720.97;;;30.76;20.81
60725;BME280;59881;36.722;-4.462;2022-12-29T08:58:52;101602.63;;;30.60;20.64
60725;BME280;59881;36.722;-4.462;2022-12-29T09:01:18;101753.88;;;32.05;19.68
60725;BME280;59881;36.722;-4.462;2022-12-29T09:03:43;101788.91;;;32.65;18.96
60725;BME280;59881;36.722;-4.462;2022-12-29T09:06:09;101843.72;;;33.32;18.69
60725;BME280;59881;36.722;-4.462;2022-12-29T09:08:35;101579.09;;;31.94;18.46
60725;BME280;59881;36.722;-4.462;2022-12-29T09:11:21;101855.06;;;33.91;19.56
60725;BME280;59881;36.722;-4.462;2022-12-29T09:13:48;101846.72;;;34.34;18.02
60725;BME280;59881;36.722;-4.462;2022-12-29T09:16:15;101838.38;;;34.29;18.27
60725;BME280;59881;36.722;-4.462;2022-12-29T09:18:41;101860.66;;;34.87;17.81
60725;BME280;59881;36.722;-4.462;2022-12-29T09:21:07;101836.97;;;35.04;17.62
60725;BME280;59881;36.722;-4.462;2022-12-29T09:23:34;101777.72;;;35.21;17.48
60725;BME280;59881;36.722;-4.462;2022-12-29T09:26:00;101895.00;;;36.41;16.61
60725;BME280;59881;36.722;-4.462;2022-12-29T09:28:25;101796.47;;;36.22;16.63
60725;BME280;59881;36.722;-4.462;2022-12-29T09:30:51;101861.78;;;37.05;15.28
60725;BME280;59881;36.722;-4.462;2022-12-29T09:33:17;101970.41;;;37.63;15.30
60725;BME280;59881;36.722;-4.462;2022-12-29T09:35:51;101893.09;;;38.26;15.41
60725;BME280;59881;36.722;-4.462;2022-12-29T09:38:16;101848.09;;;38.69;14.42
60725;BME280;59881;36.722;-4.462;2022-12-29T09:40:44;101870.72;;;39.57;13.82
60725;BME280;59881;36.722;-4.462;2022-12-29T09:46:28;101889.06;;;41.73;11.88
60725;BME280;59881;36.722;-4.462;2022-12-29T09:51:51;101871.91;;;43.24;11.29
60725;BME280;59881;36.722;-4.462;2022-12-29T09:54:46;101892.31;;;43.57;10.95
60725;BME280;59881;36.722;-4.462;2022-12-29T10:00:12;101883.31;;;39.95;12.81
60725;BME280;59881;36.722;-4.462;2022-12-29T10:05:30;101918.06;;;39.01;14.54
60725;BME280;59881;36.722;-4.462;2022-12-29T10:08:07;101906.97;;;41.96;13.10
60725;BME280;59881;36.722;-4.462;2022-12-29T10:10:42;101914.94;;;43.88;11.60
60725;BME280;59881;36.722;-4.462;2022-12-29T10:13:17;101916.03;;;45.15;10.65
60725;BME280;59881;36.722;-4.462;2022-12-29T10:18:46;101917.06;;;45.74;10.94
60725;BME280;59881;36.722;-4.462;2022-12-29T10:24:11;101912.50;;;47.28;9.59
60725;BME280;59881;36.722;-4.462;2022-12-29T10:26:41;101911.16;;;47.25;9.31
60725;BME280;59881;36.722;-4.462;2022-12-29T10:29:17;101867.06;;;46.96;9.74
60725;BME280;59881;36.722;-4.462;2022-12-29T10:32:00;101903.78;;;47.20;9.39
60725;BME280;59881;36.722;-4.462;2022-12-29T10:34:33;101685.53;;;45.63;9.53
60725;BME280;59881;36.722;-4.462;2022-12-29T10:39:35;101929.78;;;46.53;10.29
60725;BME280;59881;36.722;-4.462;2022-12-29T10:44:42;101875.41;;;46.64;9.69
60725;BME280;59881;36.722;-4.462;2022-12-29T10:47:14;101885.81;;;47.04;9.66
60725;BME280;59881;36.722;-4.462;2022-12-29T10:49:42;101917.09;;;47.23;9.52
60725;BME280;59881;36.722;-4.462;2022-12-29T10:52:11;101812.91;;;46.88;9.53
60725;BME280;59881;36.722;-4.462;2022-12-29T10:54:51;101882.47;;;47.33;9.63
60725;BME280;59881;36.722;-4.462;2022-12-29T10:57:34;101624.72;;;45.57;8.92
60725;BME280;59881;36.722;-4.462;2022-12-29T11:00:01;101536.53;;;40.01;11.23
60725;BME280;59881;36.722;-4.462;2022-12-29T11:02:36;101891.13;;;34.78;15.58
60725;BME280;59881;36.722;-4.462;2022-12-29T11:07:36;101892.03;;;26.90;23.16
60725;BME280;59881;36.722;-4.462;2022-12-29T11:12:59;101910.44;;;24.19;26.98
60725;BME280;59881;36.722;-4.462;2022-12-29T11:15:25;101882.28;;;23.45;28.05
60725;BME280;59881;36.722;-4.462;2022-12-29T11:17:57;101915.03;;;23.22;28.49
60725;BME280;59881;36.722;-4.462;2022-12-29T11:20:36;101911.41;;;22.96;29.02
60725;BME280;59881;36.722;-4.462;2022-12-29T11:23:04;101899.66;;;22.79;29.23
60725;BME280;59881;36.722;-4.462;2022-12-29T11:25:30;101984.00;;;22.68;29.42
60725;BME280;59881;36.722;-4.462;2022-12-29T11:28:14;101897.25;;;22.58;29.81
60725;BME280;59881;36.722;-4.462;2022-12-29T11:30:40;101954.81;;;22.18;29.85
60725;BME280;59881;36.722;-4.462;2022-12-29T11:33:05;101433.44;;;19.52;30.04
60725;BME280;59881;36.722;-4.462;2022-12-29T11:38:19;102004.84;;;22.09;30.25
60725;BME280;59881;36.722;-4.462;2022-12-29T11:40:46;101850.34;;;21.79;30.02
60725;BME280;59881;36.722;-4.462;2022-12-29T11:43:33;101473.66;;;19.50;30.33
60725;BME280;59881;36.722;-4.462;2022-12-29T11:46:01;101829.34;;;21.64;30.09
60725;BME280;59881;36.722;-4.462;2022-12-29T11:48:32;101874.88;;;21.84;30.41
60725;BME280;59881;36.722;-4.462;2022-12-29T11:50:59;101846.19;;;21.57;30.72
60725;BME280;59881;36.722;-4.462;2022-12-29T11:53:53;101862.97;;;21.59;30.96
60725;BME280;59881;36.722;-4.462;2022-12-29T11:56:31;101518.69;;;19.45;31.57
60725;BME280;59881;36.722;-4.462;2022-12-29T11:58:58;101453.69;;;18.96;31.36
60725;BME280;59881;36.722;-4.462;2022-12-29T12:01:38;101858.22;;;21.33;31.14
60725;BME280;59881;36.722;-4.462;2022-12-29T12:06:32;101453.53;;;18.88;31.69
60725;BME280;59881;36.722;-4.462;2022-12-29T12:09:13;101819.47;;;21.08;31.53
60725;BME280;59881;36.722;-4.462;2022-12-29T12:11:42;101812.31;;;20.99;31.48
60725;BME280;59881;36.722;-4.462;2022-12-29T12:14:38;101833.41;;;21.12;31.23
60725;BME280;59881;36.722;-4.462;2022-12-29T12:17:12;101804.97;;;20.91;31.50
60725;BME280;59881;36.722;-4.462;2022-12-29T12:19:47;101832.44;;;21.03;31.35
60725;BME280;59881;36.722;-4.462;2022-12-29T12:24:47;101825.00;;;20.97;31.28
60725;BME280;59881;36.722;-4.462;2022-12-29T12:27:28;101825.97;;;20.96;30.80
60725;BME280;59881;36.722;-4.462;2022-12-29T12:30:14;101784.25;;;20.74;30.13
60725;BME280;59881;36.722;-4.462;2022-12-29T12:33:00;101822.44;;;20.95;30.38
60725;BME280;59881;36.722;-4.462;2022-12-29T12:43:50;101697.16;;;20.21;30.43
60725;BME280;59881;36.722;-4.462;2022-12-29T12:46:40;101805.41;;;20.86;30.46
60725;BME280;59881;36.722;-4.462;2022-12-29T12:57:53;101784.41;;;20.82;30.45
60725;BME280;59881;36.722;-4.462;2022-12-29T13:00:24;101792.56;;;20.80;30.71
60725;BME280;59881;36.722;-4.462;2022-12-29T13:09:11;101768.06;;;20.75;30.41
60725;BME280;59881;36.722;-4.462;2022-12-29T13:14:55;101771.69;;;20.74;30.52
60725;BME280;59881;36.722;-4.462;2022-12-29T13:20:37;101768.19;;;20.74;30.63
60725;BME280;59881;36.722;-4.462;2022-12-29T13:23:14;101762.84;;;20.74;30.94
60725;BME280;59881;36.722;-4.462;2022-12-29T13:30:59;101755.81;;;20.73;31.42
60725;BME280;59881;36.722;-4.462;2022-12-29T13:33:36;101747.91;;;20.71;31.19
60725;BME280;59881;36.722;-4.462;2022-12-29T13:36:22;101741.00;;;20.69;31.17
60725;BME280;59881;36.722;-4.462;2022-12-29T13:39:16;101680.25;;;20.30;31.21
60725;BME280;59881;36.722;-4.462;2022-12-29T13:41:48;101626.22;;;20.07;31.29
60725;BME280;59881;36.722;-4.462;2022-12-29T13:44:20;101730.28;;;20.69;31.93
60725;BME280;59881;36.722;-4.462;2022-12-29T13:46:49;101586.81;;;19.80;31.56
60725;BME280;59881;36.722;-4.462;2022-12-29T13:49:19;101701.66;;;20.50;31.34
60725;BME280;59881;36.722;-4.462;2022-12-29T13:51:51;101708.16;;;20.47;31.53
60725;BME280;59881;36.722;-4.462;2022-12-29T14:00:22;101674.91;;;20.30;31.76
60725;BME280;59881;36.722;-4.462;2022-12-29T14:08:36;101685.78;;;20.48;31.81
60725;BME280;59881;36.722;-4.462;2022-12-29T14:11:08;101722.41;;;20.67;31.38
60725;BME280;59881;36.722;-4.462;2022-12-29T14:13:38;101678.72;;;20.47;31.72
60725;BME280;59881;36.722;-4.462;2022-12-29T14:16:05;101188.94;;;17.43;31.75
60725;BME280;59881;36.722;-4.462;2022-12-29T14:18:33;101719.44;;;20.70;31.62
60725;BME280;59881;36.722;-4.462;2022-12-29T14:21:31;101725.91;;;20.67;31.80
60725;BME280;59881;36.722;-4.462;2022-12-29T14:24:59;101723.66;;;20.63;31.77
60725;BME280;59881;36.722;-4.462;2022-12-29T14:34:50;101714.38;;;20.57;31.28
60725;BME280;59881;36.722;-4.462;2022-12-29T14:37:33;101319.63;;;18.13;31.49
60725;BME280;59881;36.722;-4.462;2022-12-29T14:40:38;101716.75;;;20.51;30.90
60725;BME280;59881;36.722;-4.462;2022-12-29T14:43:12;101728.59;;;20.48;31.23
60725;BME280;59881;36.722;-4.462;2022-12-29T14:45:41;101792.97;;;20.46;31.41
60725;BME280;59881;36.722;-4.462;2022-12-29T14:48:42;101724.22;;;20.47;31.48
60725;BME280;59881;36.722;-4.462;2022-12-29T14:51:19;101728.03;;;20.44;31.46
60725;BME280;59881;36.722;-4.462;2022-12-29T14:53:50;101192.19;;;17.16;31.82
60725;BME280;59881;36.722;-4.462;2022-12-29T14:56:18;101726.03;;;20.37;31.79
60725;BME280;59881;36.722;-4.462;2022-12-29T15:03:58;101213.88;;;17.11;31.65
60725;BME280;59881;36.722;-4.462;2022-12-29T15:06:29;101680.41;;;19.90;31.08
60725;BME280;59881;36.722;-4.462;2022-12-29T15:09:06;101710.84;;;20.08;31.88
60725;BME280;59881;36.722;-4.462;2022-12-29T15:14:02;101599.25;;;19.31;32.03
60725;BME280;59881;36.722;-4.462;2022-12-29T15:16:32;101736.03;;;20.15;31.57
60725;BME280;59881;36.722;-4.462;2022-12-29T15:19:01;101670.25;;;19.74;31.59
60725;BME280;59881;36.722;-4.462;2022-12-29T15:21:35;101710.94;;;19.97;31.24